Daily Tabular Data
[Select Refresh to Update]


10/12/19
Time         Wind Dir   Wind Spd  Wind Gust     Hum In   Humidity    Temp In       Temp  Raw Barom   Tot Rain Wind Chill Heat Ix In Heat Index  Dew Point  DailyRain   HourRain   RainRate
                            mph        mph          %          %         F         F         in         in         F         F         F         F         in         in      in/hr
12:00am            68          0          3         41         29       75.3       62.4      29.04       0.17       62.4       75.3       61.5       29.8       0.00       0.00      0.000
12:30am           112          0          1         41         30       75.1       61.3      29.04       0.17       61.3       75.1       60.5       29.6       0.00       0.00      0.000
1:00am             90          0          1         41         30       74.9       60.1      29.04       0.17       60.1       74.9       59.3       28.6       0.00       0.00      0.000
1:30am             90          0          2         41         29       74.6       59.5      29.04       0.17       59.5       74.6       58.6       27.2       0.00       0.00      0.000
2:00am             68          1          2         41         25       74.3       61.1      29.04       0.17       61.1       74.3       60.0       25.0       0.00       0.00      0.000
2:30am             68          0          2         41         23       74.1       61.8      29.03       0.17       61.8       74.1       60.6       23.6       0.00       0.00      0.000
3:00am             68          0          2         41         22       73.8       61.7      29.02       0.17       61.7       73.8       60.4       22.5       0.00       0.00      0.000
3:30am             68          0          2         41         25       73.7       60.2      29.02       0.17       60.2       73.7       59.1       24.3       0.00       0.00      0.000
4:00am             68          0          2         41         25       73.3       59.3      29.01       0.17       59.3       73.3       58.2       23.5       0.00       0.00      0.000
4:30am             68          0          2         41         29       73.1       57.5      29.01       0.17       57.5       73.1       56.6       25.5       0.00       0.00      0.000
5:00am             68          0          2         41         28       72.8       58.1      29.00       0.17       58.1       72.8       57.2       25.2       0.00       0.00      0.000
5:30am             68          0          3         41         31       72.5       57.6      29.00       0.17       57.6       72.5       56.9       27.2       0.00       0.00      0.000
6:00am             22          0          2         41         32       72.3       56.6      29.00       0.17       56.6       72.3       55.9       27.1       0.00       0.00      0.000
6:30am             22          0          3         40         32       72.0       56.5      29.00       0.17       56.5       71.9       55.8       27.0       0.00       0.00      0.000
7:00am             90          0          2         40         30       71.7       57.5      29.01       0.17       57.5       71.6       56.7       26.3       0.00       0.00      0.000
7:30am             68          1          3         40         28       71.5       59.9      29.01       0.17       59.9       71.4       59.0       26.7       0.00       0.00      0.000
8:00am             68          0          3         40         29       71.4       62.6      29.01       0.17       62.6       71.3       61.7       29.9       0.00       0.00      0.000
8:30am             68          0          0         38         27       71.4       68.7      29.02       0.17       68.7       71.2       67.7       33.4       0.00       0.00      0.000
9:00am            270          0          1         38         20       71.3       70.1      29.02       0.17       70.1       71.1       68.7       27.2       0.00       0.00      0.000
9:30am            248          0          1         38         21       71.4       70.7      29.02       0.17       70.7       71.2       69.3       28.9       0.00       0.00      0.000
10:00am           158          0          3         38         21       71.7       72.8      29.03       0.17       72.8       71.5       71.4       30.6       0.00       0.00      0.000
10:30am           248          0          2         38         23       72.0       73.5      29.03       0.17       73.5       71.8       72.3       33.5       0.00       0.00      0.000
11:00am           248          0          3         38         23       72.3       76.2      29.03       0.17       76.2       72.1       75.0       35.7       0.00       0.00      0.000
11:30am           248          0          4         38         20       72.5       78.8      29.02       0.17       78.8       72.3       77.4       34.4       0.00       0.00      0.000
12:00pm           248          0          6         38         21       72.7       79.5      29.02       0.17       79.5       72.5       78.1       36.2       0.00       0.00      0.000
12:30pm           248          1          6         38         17       72.9       79.9      29.01       0.17       79.9       72.7       78.3       31.2       0.00       0.00      0.000
1:00pm            248          1          7         38         19       73.2       80.9      29.00       0.17       80.9       73.0       79.1       34.8       0.00       0.00      0.000
1:30pm            248          1          8         38         20       73.5       82.2      29.00       0.17       82.2       73.3       80.0       37.2       0.00       0.00      0.000
2:30pm            235          4          4         39         27       74.1       80.9      28.99       0.17       80.9       73.9       79.5       43.8       0.00       0.00      0.000
3:00pm            229          2          9         39         28       74.3       80.9      28.99       0.17       80.9       74.1       79.6       44.8       0.00       0.00      0.000
3:30pm            248         10         12         39         28       74.6       79.5      28.99       0.17       79.5       74.4       78.6       43.6       0.00       0.00      0.000
4:00pm            263          2         10         39         25       74.8       79.8      28.99       0.17       79.8       74.6       78.7       40.9       0.00       0.00      0.000
4:30pm            256          2          9         39         26       75.0       79.7      28.98       0.17       79.7       74.8       78.6       41.8       0.00       0.00      0.000
5:00pm            236          1          7         40         22       75.3       79.6      28.98       0.17       79.6       75.2       78.3       37.4       0.00       0.00      0.000
5:30pm            252          2          9         40         30       75.4       76.6      28.98       0.17       76.6       75.3       75.8       42.9       0.00       0.00      0.000
6:00pm            250          0          5         40         34       75.6       74.1      28.98       0.17       74.1       75.5       73.6       44.0       0.00       0.00      0.000
6:30pm            244          0          3         40         47       75.8       71.2      28.99       0.17       71.2       75.7       71.7       50.0       0.00       0.00      0.000
7:00pm            205          0          2         40         58       75.7       68.4      28.99       0.17       68.4       75.6       70.0       53.1       0.00       0.00      0.000
7:30pm            102          1          4         41         60       75.7       66.4      29.00       0.17       66.4       75.7       68.2       52.1       0.00       0.00      0.000
8:00pm            176          0          2         41         62       75.6       65.4      29.01       0.17       65.4       75.6       67.4       52.1       0.00       0.00      0.000
8:30pm            182          0          0         41         62       75.5       64.2      29.01       0.17       64.2       75.5       66.2       50.9       0.00       0.00      0.000
9:00pm            192          0          0         41         66       75.3       62.7      29.01       0.17       62.7       75.3       65.2       51.2       0.00       0.00      0.000
9:30pm            192          0          0         41         71       75.2       62.0      29.01       0.17       62.0       75.2       65.1       52.5       0.00       0.00      0.000
10:00pm           192          0          0         42         72       75.0       61.0      29.02       0.17       61.0       75.1       64.2       51.9       0.00       0.00      0.000
10:30pm           303          0          0         42         68       74.8       60.8      29.01       0.17       60.8       74.9       63.5       50.2       0.00       0.00      0.000
11:00pm           303          0          0         42         70       74.7       59.6      29.01       0.17       59.6       74.8       62.6       49.8       0.00       0.00      0.000
11:30pm           288          0          1         42         67       74.5       59.4      29.00       0.17       59.4       74.6       62.0       48.5       0.00       0.00      0.000